This is the latest recevied weather packets stored in our database for station/object K1BWE-1. If no packets are shown the sender has not sent any weather packets the latest 10 day(s).
| Time | Temp. | Humidity | Pressure | Rain* | Wind** | Luminosity | Snow |
|---|---|---|---|---|---|---|---|
| 1777800432 | 21.11° C | 36% | 1014.7 hPa | 0 mm | - | 0 W/m² | - |
| 1777800130 | 20.56° C | 37% | 1014.7 hPa | 0 mm | - | 0 W/m² | - |
| 1777799825 | 20° C | 37% | 1014.8 hPa | 0 mm | - | 0 W/m² | - |
| 1777799523 | 20.56° C | 37% | 1014.4 hPa | 0 mm | - | 0 W/m² | - |
| 1777799218 | 19.44° C | 38% | 1014.7 hPa | 0 mm | - | 0 W/m² | - |
| 1777798914 | 20° C | 38% | 1014.4 hPa | 0 mm | - | 0 W/m² | - |
| 1777798610 | 19.44° C | 38% | 1014.7 hPa | 0 mm | - | 0 W/m² | - |
| 1777798308 | 18.89° C | 39% | 1014.7 hPa | 0 mm | - | 0 W/m² | - |
| 1777798003 | 19.44° C | 37% | 1014.5 hPa | 0 mm | - | 0 W/m² | - |
| 1777797702 | 19.44° C | 38% | 1014.5 hPa | 0 mm | - | 0 W/m² | - |
| 1777797399 | 19.44° C | 38% | 1014.8 hPa | 0 mm | - | 0 W/m² | - |
| 1777797096 | 19.44° C | 38% | 1015 hPa | 0 mm | - | 0 W/m² | - |
| 1777796792 | 20° C | 37% | 1014.8 hPa | 0 mm | - | 0 W/m² | - |
| 1777796490 | 19.44° C | 37% | 1015 hPa | 0 mm | - | 0 W/m² | - |
| 1777796184 | 20° C | 37% | 1015 hPa | 0 mm | - | 0 W/m² | - |
| 1777795881 | 20° C | 36% | 1015 hPa | 0 mm | - | 0 W/m² | - |
| 1777795577 | 20° C | 37% | 1015.4 hPa | 0 mm | - | 0 W/m² | - |
| 1777795274 | 20° C | 37% | 1015.3 hPa | 0 mm | - | 0 W/m² | - |
| 1777794971 | 20° C | 37% | 1015.3 hPa | 0 mm | - | 0 W/m² | - |
| 1777794668 | 20° C | 37% | 1015.3 hPa | 0 mm | - | 0 W/m² | - |
| 1777794363 | 20° C | 37% | 1015.1 hPa | 0 mm | - | 0 W/m² | - |
| 1777794059 | 19.44° C | 37% | 1015 hPa | 0 mm | - | 0 W/m² | - |
| 1777793755 | 20° C | 37% | 1015.2 hPa | 0 mm | - | 0 W/m² | - |
| 1777793454 | 20° C | 36% | 1015.3 hPa | 0 mm | - | 0 W/m² | - |
| 1777793151 | 20.56° C | 35% | 1015.1 hPa | 0 mm | - | 0 W/m² | - |
* Rain latest hour (hover to see other rain measurements)
** Current wind speed in m/s (hover to see current wind gust speed)